Time;durP1;ratioP1;P1;durP2;ratioP2;P2;SDS_P1;SDS_P2;PMS_P1;PMS_P2;Temp;Humidity;BMP_temperature;BMP_pressure;BME280_temperature;BME280_humidity;BME280_pressure;Samples;Min_cycle;Max_cycle;Signal;HPM_P1;HPM_P2
2022/04/13 00:03:02;;;;;;;5.10;1.60;;;13.70;99.90;;;;;;5007196;28;20098;-86
2022/04/13 00:09:45;;;;;;;2.78;1.95;;;13.80;99.90;;;;;;4903554;29;20020;-86
2022/04/13 00:12:31;;;;;;;3.03;1.77;;;13.90;99.90;;;;;;5022725;28;20026;-85
2022/04/13 00:15:42;;;;;;;3.60;1.95;;;13.90;99.90;;;;;;5023243;28;20089;-85
2022/04/13 00:19:09;;;;;;;5.95;2.50;;;13.90;99.90;;;;;;4979464;28;20085;-84
2022/04/13 00:22:09;;;;;;;;;;;;;;;;;;;;;
2022/04/13 00:25:41;;;;;;;;;;;;;;;;;;;;;
2022/04/13 00:29:09;;;;;;;;;;;;;;;;;;;;;
2022/04/13 00:32:23;;;;;;;3.70;2.08;;;13.80;99.90;;;;;;4925201;29;20108;-86
2022/04/13 00:38:23;;;;;;;;;;;;;;;;;;;;;
2022/04/13 00:41:14;;;;;;;4.32;2.10;;;13.70;99.90;;;;;;4834648;29;20058;-86
2022/04/13 00:43:42;;;;;;;2.42;1.70;;;13.70;99.90;;;;;;4813009;29;20031;-86
2022/04/13 00:46:08;;;;;;;3.10;1.65;;;13.70;99.90;;;;;;4891319;29;20056;-83
2022/04/13 00:48:39;;;;;;;2.92;1.55;;;13.70;99.90;;;;;;4977352;28;20120;-84
2022/04/13 00:51:06;;;;;;;2.85;2.25;;;13.70;99.90;;;;;;5026477;28;20038;-85
2022/04/13 00:53:34;;;;;;;2.70;1.88;;;13.60;99.90;;;;;;5022924;28;20018;-86
2022/04/13 00:56:03;;;;;;;3.28;1.67;;;13.60;99.90;;;;;;5023992;28;20112;-85
2022/04/13 00:58:32;;;;;;;2.78;2.10;;;13.70;99.90;;;;;;5024347;28;20028;-85
2022/04/13 01:01:01;;;;;;;3.10;1.88;;;13.60;99.90;;;;;;5024892;28;20351;-85
2022/04/13 01:03:29;;;;;;;3.38;2.00;;;13.60;99.90;;;;;;5023520;28;20034;-86
2022/04/13 01:05:55;;;;;;;3.92;2.00;;;13.40;99.90;;;;;;5023797;28;20049;-86
2022/04/13 01:08:21;;;;;;;3.97;2.13;;;13.40;99.90;;;;;;5024206;28;20081;-86
2022/04/13 01:10:50;;;;;;;3.90;2.10;;;13.40;99.90;;;;;;5023232;28;20022;-85
2022/04/13 01:13:17;;;;;;;4.35;2.08;;;13.30;99.90;;;;;;5023610;28;20037;-86
2022/04/13 01:15:43;;;;;;;3.85;2.20;;;13.40;99.90;;;;;;5022892;28;20129;-86
2022/04/13 01:18:11;;;;;;;4.90;2.00;;;13.40;99.90;;;;;;5021998;28;20089;-86
2022/04/13 01:20:42;;;;;;;2.60;1.85;;;13.50;99.90;;;;;;5023184;28;20049;-84
2022/04/13 01:23:08;;;;;;;4.43;1.63;;;13.70;99.90;;;;;;5022579;28;20030;-86
2022/04/13 01:25:34;;;;;;;3.22;1.80;;;13.80;99.90;;;;;;5021804;28;20022;-85
2022/04/13 01:28:02;;;;;;;3.53;2.00;;;13.90;99.90;;;;;;5023869;28;20018;-86
2022/04/13 01:30:29;;;;;;;3.17;1.75;;;13.90;99.90;;;;;;5021134;28;20382;-85
2022/04/13 01:33:03;;;;;;;4.20;1.90;;;13.70;99.90;;;;;;5019007;28;20401;-86
2022/04/13 01:35:33;;;;;;;4.25;1.77;;;13.60;99.90;;;;;;5018679;28;20460;-85
2022/04/13 01:38:06;;;;;;;4.57;1.83;;;13.40;99.90;;;;;;5018590;28;20025;-86
2022/04/13 01:40:44;;;;;;;3.20;1.58;;;13.50;99.90;;;;;;5018429;28;20026;-86
2022/04/13 01:43:13;;;;;;;3.75;2.17;;;13.70;99.90;;;;;;5020949;28;20377;-84
2022/04/13 01:45:45;;;;;;;2.78;1.60;;;13.80;99.90;;;;;;5023932;28;20393;-86
2022/04/13 01:48:13;;;;;;;3.78;1.75;;;13.70;99.90;;;;;;5022969;28;20512;-86
2022/04/13 01:50:39;;;;;;;3.22;1.98;;;13.60;99.90;;;;;;5024802;28;20045;-85
2022/04/13 01:53:07;;;;;;;3.78;2.08;;;13.60;99.90;;;;;;5024217;28;20496;-86
2022/04/13 01:55:33;;;;;;;3.25;2.10;;;13.60;99.90;;;;;;5022066;28;20034;-86
2022/04/13 01:57:59;;;;;;;2.85;1.90;;;13.50;99.90;;;;;;5023694;28;20397;-86
2022/04/13 02:00:42;;;;;;;4.47;2.03;;;13.30;99.90;;;;;;5020185;28;20407;-84
2022/04/13 02:03:13;;;;;;;3.83;1.83;;;13.20;99.90;;;;;;5020444;28;20110;-85
2022/04/13 02:06:12;;;;;;;3.65;1.63;;;13.10;99.90;;;;;;5020884;28;20022;-86
2022/04/13 02:09:12;;;;;;;;;;;;;;;;;;;;;
2022/04/13 02:12:29;;;;;;;3.63;1.58;;;13.00;99.90;;;;;;4964894;29;20114;-86
2022/04/13 02:15:24;;;;;;;;;;;;;;;;;;;;;
2022/04/13 02:18:17;;;;;;;2.88;2.00;;;12.90;99.90;;;;;;5025754;28;20097;-86
2022/04/13 02:24:00;;;;;;;3.20;1.90;;;12.90;99.90;;;;;;5018454;28;20485;-86
2022/04/13 02:27:11;;;;;;;;;;;;;;;;;;;;;
2022/04/13 02:30:08;;;;;;;2.92;1.85;;;12.80;99.90;;;;;;5025652;28;20041;-85
2022/04/13 02:33:01;;;;;;;7.30;1.92;;;12.80;99.90;;;;;;5025932;28;20041;-85
2022/04/13 02:36:02;;;;;;;4.05;2.40;;;12.80;99.90;;;;;;5021808;28;20026;-87
2022/04/13 02:38:42;;;;;;;3.65;1.90;;;12.70;99.90;;;;;;5023042;28;20022;-85
2022/04/13 02:41:35;;;;;;;4.40;1.85;;;12.60;99.90;;;;;;5026834;28;20022;-83
2022/04/13 02:44:01;;;;;;;4.43;1.95;;;12.60;99.90;;;;;;5025214;28;20041;-86
2022/04/13 02:46:27;;;;;;;2.72;2.10;;;12.60;99.90;;;;;;5043651;28;20474;-86
2022/04/13 02:48:53;;;;;;;5.72;1.75;;;12.60;99.90;;;;;;5040218;28;20461;-88
2022/04/13 02:51:21;;;;;;;7.53;2.42;;;12.50;99.90;;;;;;5043518;28;20021;-86
2022/04/13 02:53:47;;;;;;;5.47;1.98;;;12.50;99.90;;;;;;5045915;28;20592;-87
2022/04/13 02:56:13;;;;;;;3.05;1.80;;;12.50;99.90;;;;;;5052191;28;20029;-80
2022/04/13 02:58:40;;;;;;;3.72;2.30;;;12.30;99.90;;;;;;5051954;28;20014;-78
2022/04/13 03:01:06;;;;;;;4.97;2.35;;;12.20;99.90;;;;;;5044848;28;20025;-87
2022/04/13 03:03:32;;;;;;;6.30;2.05;;;12.00;99.90;;;;;;5044029;28;20205;-88
2022/04/13 03:05:58;;;;;;;4.07;2.30;;;11.90;99.90;;;;;;5049334;28;20077;-80
2022/04/13 03:08:28;;;;;;;4.38;2.53;;;11.80;99.90;;;;;;5052587;28;20059;-87
2022/04/13 03:10:53;;;;;;;4.00;2.40;;;11.70;99.90;;;;;;5044941;28;20136;-88
2022/04/13 03:13:19;;;;;;;4.93;2.78;;;11.60;99.90;;;;;;5040427;28;20026;-88
2022/04/13 03:15:46;;;;;;;5.15;2.50;;;11.50;99.90;;;;;;5038641;28;20025;-84
2022/04/13 03:18:12;;;;;;;5.68;2.75;;;11.50;99.90;;;;;;5037539;28;20082;-87
2022/04/13 03:20:38;;;;;;;4.55;2.30;;;11.30;99.90;;;;;;5036900;28;20053;-87
2022/04/13 03:23:04;;;;;;;4.35;2.28;;;11.10;99.90;;;;;;5039216;28;20040;-87
2022/04/13 03:25:32;;;;;;;5.95;2.55;;;11.10;99.90;;;;;;5044483;28;20018;-86
2022/04/13 03:27:58;;;;;;;5.68;2.58;;;11.10;99.90;;;;;;5045265;28;20017;-85
2022/04/13 03:30:26;;;;;;;4.43;2.40;;;11.00;99.90;;;;;;5040108;28;20096;-82
2022/04/13 03:32:53;;;;;;;3.25;2.17;;;10.90;99.90;;;;;;5033405;28;20105;-87
2022/04/13 03:35:19;;;;;;;3.92;2.28;;;11.00;99.90;;;;;;5033129;28;20026;-83
2022/04/13 03:37:45;;;;;;;5.75;2.63;;;10.90;99.90;;;;;;5034300;28;20036;-85
2022/04/13 03:40:11;;;;;;;7.72;3.15;;;10.90;99.90;;;;;;5033392;28;20034;-85
2022/04/13 03:42:39;;;;;;;8.82;2.67;;;10.90;99.90;;;;;;5032782;28;20500;-81
2022/04/13 03:45:07;;;;;;;4.38;2.42;;;10.90;99.90;;;;;;5026467;28;20053;-86
2022/04/13 03:47:33;;;;;;;3.40;2.20;;;10.90;99.90;;;;;;5018026;28;20026;-86
2022/04/13 03:49:59;;;;;;;6.00;2.75;;;10.90;99.90;;;;;;5015974;28;20090;-88
2022/04/13 03:52:25;;;;;;;7.20;2.75;;;10.90;99.90;;;;;;5018164;28;20049;-84
2022/04/13 03:54:51;;;;;;;6.93;2.58;;;10.90;99.90;;;;;;5017500;28;20030;-84
2022/04/13 03:57:16;;;;;;;7.50;2.90;;;10.90;99.90;;;;;;5021940;28;20036;-83
2022/04/13 03:59:42;;;;;;;8.75;3.28;;;10.80;99.90;;;;;;5016052;28;20088;-85
2022/04/13 04:02:07;;;;;;;7.47;3.00;;;10.80;99.90;;;;;;5012281;28;20079;-84
2022/04/13 04:04:33;;;;;;;3.53;2.55;;;10.80;99.90;;;;;;5012311;28;20022;-89
2022/04/13 04:07:00;;;;;;;5.65;2.72;;;10.90;99.90;;;;;;5016747;28;20173;-86
2022/04/13 04:09:25;;;;;;;7.47;2.83;;;10.90;99.90;;;;;;5011657;28;20025;-87
2022/04/13 04:11:51;;;;;;;7.88;3.03;;;11.00;99.90;;;;;;5012136;28;20029;-85
2022/04/13 04:14:16;;;;;;;6.75;2.95;;;10.90;99.90;;;;;;5011980;28;20018;-87
2022/04/13 04:16:42;;;;;;;4.95;2.75;;;10.90;99.90;;;;;;5012183;28;20030;-84
2022/04/13 04:19:09;;;;;;;5.22;2.85;;;10.80;99.90;;;;;;5012513;28;20045;-86
2022/04/13 04:21:35;;;;;;;6.47;2.90;;;10.80;99.90;;;;;;5018206;28;20018;-85
2022/04/13 04:24:01;;;;;;;4.40;2.97;;;10.70;99.90;;;;;;5015615;28;20021;-86
2022/04/13 04:26:26;;;;;;;5.18;2.95;;;10.60;99.90;;;;;;5014741;28;20536;-84
2022/04/13 04:28:52;;;;;;;5.68;3.20;;;10.50;99.90;;;;;;5014068;28;20026;-87
2022/04/13 04:31:49;;;;;;;10.05;3.83;;;10.40;99.90;;;;;;5014499;28;20069;-85
2022/04/13 04:34:03;;;;;;;6.05;2.88;;;10.40;99.90;;;;;;5015584;28;20022;-86
2022/04/13 04:36:29;;;;;;;7.20;3.10;;;10.50;99.90;;;;;;5016338;28;20030;-86
2022/04/13 04:38:55;;;;;;;9.60;3.33;;;10.40;99.90;;;;;;5015437;28;20198;-84
2022/04/13 04:41:20;;;;;;;7.10;3.03;;;10.50;99.90;;;;;;5015402;28;20032;-87
2022/04/13 04:43:46;;;;;;;7.38;3.17;;;10.50;99.90;;;;;;5014464;28;20030;-86
2022/04/13 04:46:12;;;;;;;8.95;3.45;;;10.50;99.90;;;;;;5032467;28;20550;-86
2022/04/13 04:48:42;;;;;;;7.63;3.00;;;10.60;99.90;;;;;;5035448;28;20517;-87
2022/04/13 04:51:08;;;;;;;7.07;3.17;;;10.60;99.90;;;;;;5034562;28;20032;-88
2022/04/13 04:53:34;;;;;;;5.15;3.13;;;10.60;99.90;;;;;;5034870;28;20025;-88
2022/04/13 04:56:00;;;;;;;6.00;2.90;;;10.60;99.90;;;;;;5034235;28;20361;-84
2022/04/13 04:58:26;;;;;;;4.53;3.38;;;10.60;99.90;;;;;;5035002;28;20067;-84
2022/04/13 05:00:53;;;;;;;6.53;2.72;;;10.60;99.90;;;;;;5035792;28;20419;-87
2022/04/13 05:03:19;;;;;;;11.45;3.22;;;10.60;99.90;;;;;;5036609;28;20029;-87
2022/04/13 05:05:45;;;;;;;7.75;3.10;;;10.60;99.90;;;;;;5050333;28;20070;-79
2022/04/13 05:08:13;;;;;;;7.15;2.80;;;10.60;99.90;;;;;;5055280;28;20029;-84
2022/04/13 05:10:39;;;;;;;6.63;3.10;;;10.70;99.90;;;;;;5034554;28;20051;-86
2022/04/13 05:13:05;;;;;;;7.38;3.30;;;10.70;99.90;;;;;;5036916;28;20076;-87
2022/04/13 05:15:32;;;;;;;5.55;2.47;;;10.80;99.90;;;;;;5037454;28;20035;-88
2022/04/13 05:17:58;;;;;;;4.30;2.63;;;10.90;99.90;;;;;;5037118;28;20029;-83
2022/04/13 05:20:23;;;;;;;9.68;3.35;;;11.00;99.90;;;;;;5036847;28;20126;-86
2022/04/13 05:22:49;;;;;;;5.15;3.30;;;11.00;99.90;;;;;;5036325;28;20030;-87
2022/04/13 05:25:16;;;;;;;5.93;2.85;;;11.00;99.90;;;;;;5034662;28;20473;-85
2022/04/13 05:27:43;;;;;;;7.97;3.03;;;11.20;99.90;;;;;;5034740;28;20028;-85
2022/04/13 05:30:10;;;;;;;5.78;3.42;;;11.30;99.90;;;;;;5033717;28;20409;-84
2022/04/13 05:32:58;;;;;;;7.80;3.08;;;11.40;99.90;;;;;;5033745;28;20144;-88
2022/04/13 05:35:25;;;;;;;6.00;3.33;;;11.50;99.90;;;;;;5034289;28;20029;-86
2022/04/13 05:37:51;;;;;;;9.13;3.90;;;11.60;99.90;;;;;;5033506;28;20026;-86
2022/04/13 05:40:18;;;;;;;6.05;2.95;;;11.70;99.90;;;;;;5034920;28;20021;-84
2022/04/13 05:42:45;;;;;;;8.02;3.03;;;11.80;99.90;;;;;;5036851;28;20022;-87
2022/04/13 05:45:11;;;;;;;10.50;3.88;;;11.80;99.90;;;;;;5024033;28;20260;-86
2022/04/13 05:47:38;;;;;;;9.48;3.55;;;11.90;99.90;;;;;;5013623;28;20116;-85
2022/04/13 05:50:04;;;;;;;6.90;3.28;;;12.00;99.90;;;;;;5013325;28;20109;-86
2022/04/13 05:52:30;;;;;;;4.18;3.50;;;12.00;99.90;;;;;;5013499;28;20082;-86
2022/04/13 05:54:56;;;;;;;6.88;3.63;;;12.10;99.90;;;;;;5014777;28;20375;-86
2022/04/13 05:57:21;;;;;;;10.02;3.92;;;12.20;99.90;;;;;;5014902;28;20453;-86
2022/04/13 05:59:47;;;;;;;10.48;3.80;;;12.50;99.90;;;;;;5015622;28;20061;-84
2022/04/13 06:02:14;;;;;;;4.22;3.00;;;12.50;99.90;;;;;;5017254;28;20121;-87
2022/04/13 06:04:40;;;;;;;6.05;2.88;;;12.70;99.90;;;;;;5014962;28;20022;-84
2022/04/13 06:07:05;;;;;;;8.35;3.47;;;12.80;99.90;;;;;;5014303;28;20029;-86
2022/04/13 06:09:31;;;;;;;6.03;3.15;;;13.10;99.90;;;;;;5015522;28;20029;-86
2022/04/13 06:11:56;;;;;;;8.60;3.55;;;13.30;99.90;;;;;;5013565;28;20533;-87
2022/04/13 06:14:22;;;;;;;7.78;3.03;;;13.60;99.90;;;;;;5014017;28;20464;-87
2022/04/13 06:16:48;;;;;;;9.65;3.08;;;13.70;99.90;;;;;;5014165;28;20488;-82
2022/04/13 06:19:13;;;;;;;7.88;3.00;;;13.90;99.90;;;;;;5013499;28;20021;-87
2022/04/13 06:21:39;;;;;;;6.85;2.67;;;14.30;99.90;;;;;;5014515;28;20104;-87
2022/04/13 06:24:05;;;;;;;8.85;3.30;;;14.60;99.90;;;;;;5024127;28;20034;-80
2022/04/13 06:26:31;;;;;;;11.65;3.80;;;14.80;99.90;;;;;;5029620;28;20030;-85
2022/04/13 06:28:56;;;;;;;6.88;3.00;;;15.10;99.90;;;;;;5013587;28;20083;-83
2022/04/13 06:31:22;;;;;;;7.57;3.67;;;15.50;99.90;;;;;;5013711;28;20051;-83
2022/04/13 06:33:52;;;;;;;11.82;3.25;;;15.80;99.90;;;;;;5013544;28;20026;-86
2022/04/13 06:36:18;;;;;;;8.85;2.90;;;16.10;99.90;;;;;;5016069;28;20030;-85
2022/04/13 06:38:44;;;;;;;9.77;3.10;;;16.40;99.90;;;;;;5013637;28;20051;-88
2022/04/13 06:41:10;;;;;;;7.22;3.60;;;16.70;99.90;;;;;;5015020;28;20026;-84
2022/04/13 06:43:36;;;;;;;14.73;3.92;;;16.80;99.90;;;;;;5012050;28;20044;-85
2022/04/13 06:46:03;;;;;;;8.02;3.40;;;17.00;99.90;;;;;;5032176;28;20017;-88
2022/04/13 06:48:28;;;;;;;10.80;3.70;;;17.20;99.90;;;;;;5039158;28;20028;-82
2022/04/13 06:50:54;;;;;;;9.57;4.10;;;17.30;99.90;;;;;;5035293;28;20025;-86
2022/04/13 06:53:21;;;;;;;11.23;3.47;;;17.50;99.90;;;;;;5034323;28;20090;-84
2022/04/13 06:55:47;;;;;;;8.43;3.58;;;17.70;99.90;;;;;;5034768;28;20018;-88
2022/04/13 06:58:14;;;;;;;8.13;3.92;;;17.80;99.90;;;;;;5033897;28;20056;-88
2022/04/13 07:00:40;;;;;;;10.05;4.05;;;17.80;99.90;;;;;;5034008;28;20025;-87
2022/04/13 07:03:06;;;;;;;14.73;4.85;;;17.80;99.90;;;;;;5034653;28;20029;-86
2022/04/13 07:05:33;;;;;;;12.77;4.90;;;17.80;99.90;;;;;;5033866;28;20053;-87
2022/04/13 07:08:00;;;;;;;8.85;4.43;;;17.70;99.90;;;;;;5034340;28;20040;-84
2022/04/13 07:10:34;;;;;;;11.30;4.88;;;17.70;99.90;;;;;;5035224;28;20021;-87
2022/04/13 07:13:03;;;;;;;14.07;4.45;;;18.00;99.90;;;;;;5039306;28;20036;-82
2022/04/13 07:15:28;;;;;;;15.35;5.60;;;18.20;99.90;;;;;;5056010;28;20029;-80
2022/04/13 07:17:54;;;;;;;9.52;4.18;;;18.40;99.90;;;;;;5039985;28;20025;-87
2022/04/13 07:20:20;;;;;;;10.00;4.10;;;18.60;99.90;;;;;;5034246;28;20434;-87
2022/04/13 07:22:47;;;;;;;13.10;4.88;;;18.40;99.90;;;;;;5033331;28;20171;-87
2022/04/13 07:25:14;;;;;;;11.60;5.32;;;18.20;99.90;;;;;;5032602;28;20030;-87
2022/04/13 07:27:40;;;;;;;12.73;5.32;;;17.80;99.90;;;;;;5032981;28;20090;-88
2022/04/13 07:30:20;;;;;;;;;;;;;;;;;;;;;
2022/04/13 07:32:47;;;;;;;8.43;4.78;;;17.50;99.90;;;;;;5034373;28;20029;-88
2022/04/13 07:35:16;;;;;;;12.68;4.95;;;17.50;99.90;;;;;;5032911;28;20029;-88
2022/04/13 07:37:43;;;;;;;16.02;5.20;;;17.30;99.90;;;;;;5033138;28;20025;-88
2022/04/13 07:40:11;;;;;;;11.10;5.53;;;17.20;99.90;;;;;;5032129;28;20117;-87
2022/04/13 07:42:37;;;;;;;15.13;5.72;;;17.20;99.90;;;;;;5032144;28;20374;-87
2022/04/13 07:45:04;;;;;;;12.07;5.43;;;17.20;99.90;;;;;;5024133;28;20079;-88
2022/04/13 07:47:33;;;;;;;13.25;5.35;;;17.20;99.90;;;;;;5013026;28;20037;-89
2022/04/13 07:49:59;;;;;;;11.93;5.18;;;17.30;99.90;;;;;;5014176;28;20018;-88
2022/04/13 07:52:26;;;;;;;8.95;4.60;;;17.70;99.90;;;;;;5013747;28;20037;-88
2022/04/13 07:54:52;;;;;;;14.93;5.55;;;18.10;99.90;;;;;;5014870;28;20097;-91
2022/04/13 07:57:44;;;;;;;11.43;5.93;;;18.40;99.90;;;;;;5015180;28;20430;-88
2022/04/13 08:00:18;;;;;;;19.38;6.63;;;18.50;99.90;;;;;;5013955;28;20034;-89
2022/04/13 08:02:47;;;;;;;17.70;6.28;;;18.50;99.90;;;;;;5014921;28;20046;-89
2022/04/13 08:05:16;;;;;;;17.65;6.60;;;18.40;99.90;;;;;;5014950;28;20026;-85
2022/04/13 08:07:42;;;;;;;12.80;6.50;;;18.20;99.90;;;;;;5013367;28;20516;-88
2022/04/13 08:10:16;;;;;;;17.52;6.43;;;18.00;99.90;;;;;;5013482;28;20045;-88
2022/04/13 08:12:50;;;;;;;15.63;6.53;;;17.90;99.90;;;;;;5013891;28;20484;-87
2022/04/13 08:15:16;;;;;;;15.75;6.40;;;17.90;99.90;;;;;;5013666;28;20092;-88
2022/04/13 08:17:51;;;;;;;15.93;6.20;;;17.80;99.90;;;;;;5013581;28;20022;-87
2022/04/13 08:20:19;;;;;;;19.05;6.47;;;17.80;99.90;;;;;;5014136;28;20490;-88
2022/04/13 08:23:03;;;;;;;14.23;6.85;;;17.80;99.90;;;;;;5014326;28;20061;-89
2022/04/13 08:25:28;;;;;;;16.60;6.68;;;17.90;99.90;;;;;;5014236;28;20453;-89
2022/04/13 08:28:20;;;;;;;10.95;5.35;;;17.90;99.90;;;;;;5015186;28;20065;-87
2022/04/13 08:31:04;;;;;;;15.95;7.10;;;18.20;99.90;;;;;;5020046;28;20041;-87
2022/04/13 08:33:32;;;;;;;12.27;7.30;;;18.80;99.90;;;;;;5018966;28;20052;-85
2022/04/13 08:36:00;;;;;;;15.32;5.90;;;19.00;99.90;;;;;;5028406;28;20038;-82
2022/04/13 08:38:26;;;;;;;12.02;7.10;;;19.50;99.90;;;;;;5024251;28;20489;-89
2022/04/13 08:41:01;;;;;;;17.67;7.25;;;20.20;99.90;;;;;;5018459;28;20041;-88
2022/04/13 08:43:45;;;;;;;13.80;5.60;;;21.00;96.30;;;;;;5020911;28;20064;-90
2022/04/13 08:46:55;;;;;;;18.92;7.00;;;21.60;94.10;;;;;;5038380;28;20075;-87
2022/04/13 08:49:17;;;;;;;16.48;6.28;;;22.00;86.80;;;;;;5037699;28;20098;-89
2022/04/13 08:54:51;;;;;;;11.43;6.05;;;22.60;83.00;;;;;;5036895;28;20032;-89
2022/04/13 08:57:23;;;;;;;12.48;5.85;;;23.00;81.10;;;;;;5033393;28;20049;-89
2022/04/13 09:00:13;;;;;;;15.50;6.70;;;23.30;78.50;;;;;;5036489;28;20512;-85
2022/04/13 09:02:50;;;;;;;15.52;6.43;;;23.40;79.40;;;;;;5034626;28;20071;-86
2022/04/13 09:05:20;;;;;;;16.42;6.65;;;23.60;74.60;;;;;;5036624;28;20025;-86
2022/04/13 09:07:53;;;;;;;16.75;6.60;;;23.60;73.80;;;;;;5039607;28;20503;-86
2022/04/13 09:10:21;;;;;;;15.82;6.97;;;23.60;73.00;;;;;;5039818;28;20071;-88
2022/04/13 09:12:53;;;;;;;15.48;6.90;;;23.60;73.60;;;;;;5041895;28;20089;-83
2022/04/13 09:15:20;;;;;;;16.85;7.35;;;23.80;71.10;;;;;;5041227;28;20022;-86
2022/04/13 09:17:46;;;;;;;20.20;7.85;;;23.90;70.30;;;;;;5039032;28;20056;-87
2022/04/13 09:20:13;;;;;;;13.23;6.50;;;23.80;69.20;;;;;;5039562;28;20076;-88
2022/04/13 09:22:40;;;;;;;16.45;7.28;;;23.70;71.60;;;;;;5041746;28;20025;-87
2022/04/13 09:25:08;;;;;;;9.68;5.85;;;23.80;70.40;;;;;;5052766;28;20085;-83
2022/04/13 09:27:36;;;;;;;17.67;7.85;;;23.80;70.10;;;;;;5056288;28;20030;-89
2022/04/13 09:30:01;;;;;;;12.18;5.53;;;24.10;69.40;;;;;;5042285;28;20033;-88
2022/04/13 09:32:28;;;;;;;16.80;8.10;;;23.90;70.70;;;;;;5038519;28;20033;-88
2022/04/13 09:34:55;;;;;;;16.38;7.88;;;24.10;69.00;;;;;;5040394;28;20048;-85
2022/04/13 09:37:23;;;;;;;12.15;6.50;;;24.30;68.00;;;;;;5038726;28;20026;-89
2022/04/13 09:39:50;;;;;;;9.68;5.47;;;24.50;67.80;;;;;;5038725;28;20288;-88
2022/04/13 09:42:15;;;;;;;14.77;6.05;;;24.40;70.20;;;;;;5037581;28;20025;-85
2022/04/13 09:44:42;;;;;;;12.05;6.53;;;24.40;67.80;;;;;;5033479;28;20018;-86
2022/04/13 09:47:10;;;;;;;17.90;7.45;;;24.40;67.30;;;;;;5032767;28;20161;-80
2022/04/13 09:49:45;;;;;;;17.10;7.82;;;24.10;67.40;;;;;;5030078;28;20033;-84
2022/04/13 09:52:11;;;;;;;19.23;6.88;;;24.00;68.80;;;;;;5020306;28;20030;-85
2022/04/13 09:54:45;;;;;;;11.57;5.28;;;24.50;68.30;;;;;;5018124;28;20041;-88
2022/04/13 09:57:23;;;;;;;15.00;6.22;;;24.90;67.50;;;;;;5018958;28;20032;-87
2022/04/13 09:59:58;;;;;;;15.00;5.95;;;25.00;64.60;;;;;;5019157;28;20026;-87
2022/04/13 10:02:37;;;;;;;12.47;5.03;;;25.10;63.10;;;;;;5017107;28;20125;-89
2022/04/13 10:05:08;;;;;;;13.05;5.38;;;25.00;64.40;;;;;;5016079;28;20168;-84
2022/04/13 10:07:36;;;;;;;12.63;4.95;;;24.80;65.20;;;;;;5020631;28;20385;-87
2022/04/13 10:10:02;;;;;;;10.32;5.13;;;24.70;65.70;;;;;;5016600;28;20410;-88
2022/04/13 10:12:28;;;;;;;12.25;5.22;;;24.60;64.00;;;;;;5017053;28;20056;-86
2022/04/13 10:15:07;;;;;;;16.30;5.30;;;24.90;63.20;;;;;;5017289;28;20034;-87
2022/04/13 10:17:34;;;;;;;11.05;4.57;;;24.80;62.70;;;;;;5020219;28;20087;-87
2022/04/13 10:19:59;;;;;;;10.82;4.00;;;25.10;64.70;;;;;;5020410;28;20041;-87
2022/04/13 10:22:25;;;;;;;12.00;4.50;;;25.20;62.10;;;;;;5020888;28;20033;-88
2022/04/13 10:24:51;;;;;;;8.75;4.40;;;25.30;60.70;;;;;;5019741;28;20030;-87
2022/04/13 10:27:19;;;;;;;10.73;4.65;;;25.40;60.50;;;;;;5022748;28;20029;-89
2022/04/13 10:29:49;;;;;;;13.55;4.20;;;25.40;61.30;;;;;;5016515;28;20030;-88
2022/04/13 10:32:25;;;;;;;9.02;3.72;;;25.70;60.00;;;;;;5019341;28;20502;-87
2022/04/13 10:34:56;;;;;;;10.68;3.78;;;25.30;61.40;;;;;;5022705;28;20033;-88
2022/04/13 10:37:23;;;;;;;7.50;3.17;;;24.80;61.00;;;;;;5018847;28;20022;-88
2022/04/13 10:39:52;;;;;;;12.10;3.35;;;24.10;64.20;;;;;;5020167;28;20048;-87
2022/04/13 10:42:21;;;;;;;12.40;4.03;;;23.60;66.70;;;;;;5019915;28;20018;-87
2022/04/13 10:45:07;;;;;;;6.15;2.90;;;23.30;67.80;;;;;;5027135;28;20014;-89
2022/04/13 10:47:49;;;;;;;12.55;3.53;;;23.10;69.30;;;;;;5041236;28;20019;-86
2022/04/13 10:50:24;;;;;;;7.65;2.47;;;23.20;66.50;;;;;;5043407;28;20493;-86
2022/04/13 10:53:32;;;;;;;6.00;2.50;;;23.40;65.30;;;;;;5045857;28;20025;-88
2022/04/13 10:56:04;;;;;;;8.13;2.53;;;23.60;66.30;;;;;;4971116;28;20035;-84
2022/04/13 10:58:59;;;;;;;5.88;2.85;;;23.80;65.50;;;;;;5028342;28;20048;-87
2022/04/13 11:01:29;;;;;;;10.73;3.10;;;24.00;64.50;;;;;;5044969;28;20028;-86
2022/04/13 11:03:56;;;;;;;9.30;3.30;;;24.10;64.00;;;;;;5036757;28;20065;-86
2022/04/13 11:06:23;;;;;;;11.15;3.40;;;24.10;65.10;;;;;;5039371;28;20021;-86
2022/04/13 11:09:09;;;;;;;5.93;2.78;;;24.20;62.60;;;;;;5041186;28;20006;-87
2022/04/13 11:11:40;;;;;;;6.13;2.03;;;24.50;64.70;;;;;;5041770;28;20026;-84
2022/04/13 11:14:19;;;;;;;8.88;2.65;;;24.90;62.80;;;;;;5046144;28;20056;-87
2022/04/13 11:16:45;;;;;;;13.40;3.22;;;24.90;61.80;;;;;;5035802;28;20033;-86
2022/04/13 11:19:12;;;;;;;8.80;2.97;;;24.80;61.50;;;;;;5037681;28;20136;-86
2022/04/13 11:21:52;;;;;;;11.10;3.00;;;24.70;63.60;;;;;;5044934;28;20032;-85
2022/04/13 11:24:33;;;;;;;10.25;3.80;;;24.80;61.10;;;;;;5045574;28;20013;-81
2022/04/13 11:26:59;;;;;;;6.90;3.00;;;25.10;62.20;;;;;;5043637;28;20029;-86
2022/04/13 11:29:38;;;;;;;11.23;3.30;;;25.40;60.20;;;;;;5046572;28;20033;-83
2022/04/13 11:32:06;;;;;;;9.63;3.55;;;25.50;61.60;;;;;;5036206;28;20117;-86
2022/04/13 11:34:51;;;;;;;7.60;2.60;;;25.30;59.30;;;;;;5046621;28;20028;-80
2022/04/13 11:37:23;;;;;;;12.02;3.20;;;25.20;59.50;;;;;;5051382;28;20100;-87
2022/04/13 11:39:59;;;;;;;10.30;3.63;;;25.40;59.70;;;;;;5035300;28;20056;-85
2022/04/13 11:42:40;;;;;;;10.90;3.38;;;25.40;58.50;;;;;;5034486;28;20539;-86
2022/04/13 11:45:11;;;;;;;10.05;3.15;;;25.60;59.20;;;;;;5025659;28;20138;-87
2022/04/13 11:47:43;;;;;;;10.40;3.25;;;25.60;59.50;;;;;;5016686;28;20022;-87
2022/04/13 11:50:15;;;;;;;8.15;3.20;;;25.50;59.50;;;;;;5014286;28;20022;-89
2022/04/13 11:52:46;;;;;;;8.85;3.08;;;25.00;61.10;;;;;;5014923;28;20025;-88
2022/04/13 11:55:22;;;;;;;9.13;3.45;;;24.90;63.50;;;;;;5016304;28;20030;-88
2022/04/13 11:58:13;;;;;;;10.18;3.05;;;25.00;61.10;;;;;;5017232;28;20037;-87
2022/04/13 12:00:59;;;;;;;5.07;2.70;;;25.30;60.60;;;;;;5024782;28;20094;-88
2022/04/13 12:03:32;;;;;;;7.65;3.15;;;25.60;59.60;;;;;;5016174;28;20116;-88
2022/04/13 12:06:22;;;;;;;7.72;2.22;;;26.00;59.20;;;;;;5016831;28;20476;-88
2022/04/13 12:08:50;;;;;;;9.18;2.78;;;26.20;60.60;;;;;;5014697;28;20030;-88
2022/04/13 12:11:19;;;;;;;6.65;2.60;;;26.00;60.20;;;;;;5017151;28;20026;-86
2022/04/13 12:13:55;;;;;;;7.63;2.38;;;25.60;61.60;;;;;;5017085;28;20032;-88
2022/04/13 12:16:28;;;;;;;8.50;2.90;;;25.00;61.70;;;;;;5017352;28;20029;-89
2022/04/13 12:19:07;;;;;;;7.25;2.85;;;24.30;63.90;;;;;;5015092;28;20056;-88
2022/04/13 12:21:39;;;;;;;8.80;2.78;;;23.90;64.00;;;;;;5016708;28;20113;-86
2022/04/13 12:24:06;;;;;;;9.90;2.70;;;23.60;64.90;;;;;;5017615;28;20134;-87
2022/04/13 12:26:39;;;;;;;9.48;2.88;;;23.60;65.90;;;;;;5018438;28;20475;-88
2022/04/13 12:29:19;;;;;;;9.63;2.80;;;23.60;63.70;;;;;;5015731;28;20042;-87
2022/04/13 12:31:57;;;;;;;6.72;2.33;;;23.50;64.60;;;;;;5016417;28;20085;-87
2022/04/13 12:34:26;;;;;;;9.70;3.17;;;23.30;67.30;;;;;;5020005;28;20034;-87
2022/04/13 12:37:05;;;;;;;8.05;2.70;;;23.20;65.30;;;;;;5020720;28;20504;-84
2022/04/13 12:39:33;;;;;;;7.63;2.97;;;23.00;66.30;;;;;;5018760;28;20026;-88
2022/04/13 12:41:59;;;;;;;9.88;2.90;;;23.10;65.50;;;;;;5021450;28;20025;-88
2022/04/13 12:44:25;;;;;;;9.77;3.13;;;23.10;66.30;;;;;;5024905;28;20025;-86
2022/04/13 12:47:12;;;;;;;8.77;2.65;;;23.40;66.20;;;;;;5023448;28;20025;-84
2022/04/13 12:49:40;;;;;;;8.52;2.67;;;24.00;64.20;;;;;;5034436;28;20033;-85
2022/04/13 12:52:08;;;;;;;7.03;2.35;;;24.30;63.60;;;;;;5027843;28;20083;-88
2022/04/13 12:54:36;;;;;;;9.57;2.90;;;24.20;63.50;;;;;;5024078;28;20534;-86
2022/04/13 12:57:03;;;;;;;9.75;3.78;;;24.00;64.70;;;;;;5020420;28;20068;-86
2022/04/13 12:59:34;;;;;;;10.75;3.70;;;23.70;67.10;;;;;;5019508;28;20493;-87
2022/04/13 13:02:00;;;;;;;6.65;3.13;;;23.40;67.90;;;;;;5021223;28;20018;-86
2022/04/13 13:04:26;;;;;;;11.63;3.80;;;23.10;70.30;;;;;;5024313;28;20030;-87
2022/04/13 13:07:01;;;;;;;10.18;3.38;;;22.80;71.00;;;;;;5024248;28;20032;-89
2022/04/13 13:09:31;;;;;;;12.23;3.97;;;22.70;71.30;;;;;;5024346;28;20053;-87
2022/04/13 13:12:12;;;;;;;10.80;3.25;;;22.80;70.50;;;;;;5022535;28;20026;-89
2022/04/13 13:14:46;;;;;;;10.27;3.22;;;23.00;70.70;;;;;;5017230;28;20029;-86
2022/04/13 13:17:16;;;;;;;7.83;3.20;;;23.10;70.10;;;;;;5016012;28;20026;-87
2022/04/13 13:19:42;;;;;;;5.65;2.97;;;23.10;70.30;;;;;;5016836;28;20772;-86
2022/04/13 13:22:28;;;;;;;5.65;3.28;;;23.30;69.60;;;;;;5025714;28;20026;-82
2022/04/13 13:24:54;;;;;;;7.93;3.60;;;23.20;69.30;;;;;;5034100;28;20034;-84
2022/04/13 13:27:25;;;;;;;7.22;3.25;;;23.60;68.20;;;;;;5016048;28;20041;-88
2022/04/13 13:29:51;;;;;;;10.57;3.25;;;23.70;69.00;;;;;;5015893;28;20393;-85
2022/04/13 13:32:19;;;;;;;12.95;3.53;;;23.60;67.30;;;;;;5017587;28;20449;-87